sensor_id;sensor_type;location;lat;lon;timestamp;P1;durP1;ratioP1;P2;durP2;ratioP2
56810;SDS011;42691;47.234;27.494;2022-10-14T00:01:19;10.07;;;7.53;;
56810;SDS011;42691;47.234;27.494;2022-10-14T00:03:47;15.20;;;7.90;;
56810;SDS011;42691;47.234;27.494;2022-10-14T00:06:17;12.55;;;7.65;;
56810;SDS011;42691;47.234;27.494;2022-10-14T00:08:44;9.52;;;8.45;;
56810;SDS011;42691;47.234;27.494;2022-10-14T00:11:30;12.30;;;7.43;;
56810;SDS011;42691;47.234;27.494;2022-10-14T00:13:58;12.45;;;7.13;;
56810;SDS011;42691;47.234;27.494;2022-10-14T00:16:30;11.55;;;7.97;;
56810;SDS011;42691;47.234;27.494;2022-10-14T00:18:58;13.55;;;8.07;;
56810;SDS011;42691;47.234;27.494;2022-10-14T00:21:24;9.40;;;6.55;;
56810;SDS011;42691;47.234;27.494;2022-10-14T00:23:50;8.00;;;6.30;;
56810;SDS011;42691;47.234;27.494;2022-10-14T00:26:26;10.50;;;6.80;;
56810;SDS011;42691;47.234;27.494;2022-10-14T00:28:53;10.88;;;6.57;;
56810;SDS011;42691;47.234;27.494;2022-10-14T00:31:19;11.05;;;8.00;;
56810;SDS011;42691;47.234;27.494;2022-10-14T00:33:45;8.90;;;6.15;;
56810;SDS011;42691;47.234;27.494;2022-10-14T00:36:11;9.85;;;5.78;;
56810;SDS011;42691;47.234;27.494;2022-10-14T00:38:38;7.72;;;5.75;;
56810;SDS011;42691;47.234;27.494;2022-10-14T00:41:04;7.22;;;6.15;;
56810;SDS011;42691;47.234;27.494;2022-10-14T00:43:50;9.43;;;5.45;;
56810;SDS011;42691;47.234;27.494;2022-10-14T00:46:42;8.52;;;6.38;;
56810;SDS011;42691;47.234;27.494;2022-10-14T00:49:11;6.85;;;4.63;;
56810;SDS011;42691;47.234;27.494;2022-10-14T00:51:41;10.93;;;7.00;;
56810;SDS011;42691;47.234;27.494;2022-10-14T00:54:09;10.77;;;6.43;;
56810;SDS011;42691;47.234;27.494;2022-10-14T00:56:37;9.32;;;6.00;;
56810;SDS011;42691;47.234;27.494;2022-10-14T00:59:03;8.45;;;5.30;;
56810;SDS011;42691;47.234;27.494;2022-10-14T01:01:30;12.45;;;8.10;;
56810;SDS011;42691;47.234;27.494;2022-10-14T01:03:56;10.90;;;5.68;;
56810;SDS011;42691;47.234;27.494;2022-10-14T01:09:13;7.45;;;5.28;;
56810;SDS011;42691;47.234;27.494;2022-10-14T01:14:34;11.98;;;6.78;;
56810;SDS011;42691;47.234;27.494;2022-10-14T01:20:29;7.55;;;4.95;;
56810;SDS011;42691;47.234;27.494;2022-10-14T01:31:54;8.82;;;5.55;;
56810;SDS011;42691;47.234;27.494;2022-10-14T01:34:34;11.10;;;6.93;;
56810;SDS011;42691;47.234;27.494;2022-10-14T01:37:22;11.25;;;5.70;;
56810;SDS011;42691;47.234;27.494;2022-10-14T01:39:54;8.73;;;6.13;;
56810;SDS011;42691;47.234;27.494;2022-10-14T01:42:27;8.70;;;5.18;;
56810;SDS011;42691;47.234;27.494;2022-10-14T01:45:03;10.35;;;5.45;;
56810;SDS011;42691;47.234;27.494;2022-10-14T01:47:43;11.32;;;6.05;;
56810;SDS011;42691;47.234;27.494;2022-10-14T01:50:16;9.43;;;5.43;;
56810;SDS011;42691;47.234;27.494;2022-10-14T01:53:06;6.78;;;4.55;;
56810;SDS011;42691;47.234;27.494;2022-10-14T01:55:36;7.55;;;4.55;;
56810;SDS011;42691;47.234;27.494;2022-10-14T01:58:07;8.93;;;6.22;;
56810;SDS011;42691;47.234;27.494;2022-10-14T02:00:35;9.80;;;5.60;;
56810;SDS011;42691;47.234;27.494;2022-10-14T02:03:02;7.70;;;5.53;;
56810;SDS011;42691;47.234;27.494;2022-10-14T02:05:30;8.32;;;4.80;;
56810;SDS011;42691;47.234;27.494;2022-10-14T02:08:23;11.52;;;5.50;;
56810;SDS011;42691;47.234;27.494;2022-10-14T02:11:08;9.50;;;5.15;;
56810;SDS011;42691;47.234;27.494;2022-10-14T02:18:47;8.35;;;5.85;;
56810;SDS011;42691;47.234;27.494;2022-10-14T02:21:33;8.73;;;5.65;;
56810;SDS011;42691;47.234;27.494;2022-10-14T02:26:49;8.40;;;6.47;;
56810;SDS011;42691;47.234;27.494;2022-10-14T02:29:18;9.73;;;7.00;;
56810;SDS011;42691;47.234;27.494;2022-10-14T02:31:46;6.70;;;4.72;;
56810;SDS011;42691;47.234;27.494;2022-10-14T02:34:13;11.68;;;5.78;;
56810;SDS011;42691;47.234;27.494;2022-10-14T02:36:43;8.85;;;5.75;;
56810;SDS011;42691;47.234;27.494;2022-10-14T02:39:10;7.78;;;4.88;;
56810;SDS011;42691;47.234;27.494;2022-10-14T02:41:40;12.25;;;5.63;;
56810;SDS011;42691;47.234;27.494;2022-10-14T02:44:05;8.68;;;4.80;;
56810;SDS011;42691;47.234;27.494;2022-10-14T02:46:31;9.68;;;4.15;;
56810;SDS011;42691;47.234;27.494;2022-10-14T02:48:58;8.65;;;5.85;;
56810;SDS011;42691;47.234;27.494;2022-10-14T02:51:24;7.00;;;4.80;;
56810;SDS011;42691;47.234;27.494;2022-10-14T02:53:50;6.70;;;4.80;;
56810;SDS011;42691;47.234;27.494;2022-10-14T02:56:16;13.52;;;4.03;;
56810;SDS011;42691;47.234;27.494;2022-10-14T02:58:41;11.55;;;5.18;;
56810;SDS011;42691;47.234;27.494;2022-10-14T03:01:07;7.68;;;4.32;;
56810;SDS011;42691;47.234;27.494;2022-10-14T03:03:32;9.38;;;6.10;;
56810;SDS011;42691;47.234;27.494;2022-10-14T03:05:58;8.93;;;4.53;;
56810;SDS011;42691;47.234;27.494;2022-10-14T03:08:24;8.10;;;4.32;;
56810;SDS011;42691;47.234;27.494;2022-10-14T03:10:49;5.18;;;3.53;;
56810;SDS011;42691;47.234;27.494;2022-10-14T03:13:15;14.05;;;4.25;;
56810;SDS011;42691;47.234;27.494;2022-10-14T03:15:40;15.02;;;4.95;;
56810;SDS011;42691;47.234;27.494;2022-10-14T03:18:06;13.07;;;6.75;;
56810;SDS011;42691;47.234;27.494;2022-10-14T03:20:31;6.72;;;5.25;;
56810;SDS011;42691;47.234;27.494;2022-10-14T03:22:58;8.18;;;4.68;;
56810;SDS011;42691;47.234;27.494;2022-10-14T03:25:23;8.45;;;4.45;;
56810;SDS011;42691;47.234;27.494;2022-10-14T03:27:49;6.03;;;4.85;;
56810;SDS011;42691;47.234;27.494;2022-10-14T03:30:14;9.90;;;4.97;;
56810;SDS011;42691;47.234;27.494;2022-10-14T03:32:40;6.45;;;4.22;;
56810;SDS011;42691;47.234;27.494;2022-10-14T03:35:06;9.65;;;5.97;;
56810;SDS011;42691;47.234;27.494;2022-10-14T03:37:32;11.60;;;5.38;;
56810;SDS011;42691;47.234;27.494;2022-10-14T03:39:57;7.25;;;4.68;;
56810;SDS011;42691;47.234;27.494;2022-10-14T03:42:22;5.90;;;4.07;;
56810;SDS011;42691;47.234;27.494;2022-10-14T03:44:48;10.98;;;6.28;;
56810;SDS011;42691;47.234;27.494;2022-10-14T03:47:13;8.13;;;4.95;;
56810;SDS011;42691;47.234;27.494;2022-10-14T03:49:39;10.10;;;5.75;;
56810;SDS011;42691;47.234;27.494;2022-10-14T03:52:04;13.55;;;5.03;;
56810;SDS011;42691;47.234;27.494;2022-10-14T03:54:30;12.93;;;5.88;;
56810;SDS011;42691;47.234;27.494;2022-10-14T03:56:55;11.20;;;4.82;;
56810;SDS011;42691;47.234;27.494;2022-10-14T03:59:20;6.18;;;4.53;;
56810;SDS011;42691;47.234;27.494;2022-10-14T04:01:46;9.13;;;5.43;;
56810;SDS011;42691;47.234;27.494;2022-10-14T04:04:11;9.43;;;6.28;;
56810;SDS011;42691;47.234;27.494;2022-10-14T04:06:37;8.80;;;4.32;;
56810;SDS011;42691;47.234;27.494;2022-10-14T04:09:03;7.93;;;4.78;;
56810;SDS011;42691;47.234;27.494;2022-10-14T04:11:28;7.90;;;4.38;;
56810;SDS011;42691;47.234;27.494;2022-10-14T04:13:57;7.20;;;4.53;;
56810;SDS011;42691;47.234;27.494;2022-10-14T04:16:23;14.38;;;6.28;;
56810;SDS011;42691;47.234;27.494;2022-10-14T04:18:48;8.02;;;4.55;;
56810;SDS011;42691;47.234;27.494;2022-10-14T04:21:14;11.75;;;6.35;;
56810;SDS011;42691;47.234;27.494;2022-10-14T04:23:40;7.05;;;4.88;;
56810;SDS011;42691;47.234;27.494;2022-10-14T04:26:06;7.63;;;4.57;;
56810;SDS011;42691;47.234;27.494;2022-10-14T04:28:33;8.95;;;4.90;;
56810;SDS011;42691;47.234;27.494;2022-10-14T04:30:59;6.88;;;5.30;;
56810;SDS011;42691;47.234;27.494;2022-10-14T04:33:25;21.80;;;7.13;;
56810;SDS011;42691;47.234;27.494;2022-10-14T04:35:55;16.45;;;4.97;;
56810;SDS011;42691;47.234;27.494;2022-10-14T04:38:22;7.28;;;4.32;;
56810;SDS011;42691;47.234;27.494;2022-10-14T04:40:48;9.02;;;5.88;;
56810;SDS011;42691;47.234;27.494;2022-10-14T04:43:13;10.73;;;7.03;;
56810;SDS011;42691;47.234;27.494;2022-10-14T04:45:40;11.73;;;4.38;;
56810;SDS011;42691;47.234;27.494;2022-10-14T04:48:05;10.55;;;4.47;;
56810;SDS011;42691;47.234;27.494;2022-10-14T04:50:31;6.63;;;3.58;;
56810;SDS011;42691;47.234;27.494;2022-10-14T04:52:56;8.75;;;4.88;;
56810;SDS011;42691;47.234;27.494;2022-10-14T04:55:22;11.23;;;5.75;;
56810;SDS011;42691;47.234;27.494;2022-10-14T04:57:47;7.55;;;4.07;;
56810;SDS011;42691;47.234;27.494;2022-10-14T05:00:13;14.38;;;5.45;;
56810;SDS011;42691;47.234;27.494;2022-10-14T05:02:39;7.15;;;3.45;;
56810;SDS011;42691;47.234;27.494;2022-10-14T05:05:05;8.95;;;4.38;;
56810;SDS011;42691;47.234;27.494;2022-10-14T05:07:31;14.38;;;6.03;;
56810;SDS011;42691;47.234;27.494;2022-10-14T05:09:58;12.45;;;5.55;;
56810;SDS011;42691;47.234;27.494;2022-10-14T05:12:23;7.15;;;4.50;;
56810;SDS011;42691;47.234;27.494;2022-10-14T05:14:48;7.47;;;4.40;;
56810;SDS011;42691;47.234;27.494;2022-10-14T05:17:14;13.75;;;4.85;;
56810;SDS011;42691;47.234;27.494;2022-10-14T05:19:39;10.57;;;3.75;;
56810;SDS011;42691;47.234;27.494;2022-10-14T05:22:05;10.93;;;4.93;;
56810;SDS011;42691;47.234;27.494;2022-10-14T05:24:30;7.75;;;4.05;;
56810;SDS011;42691;47.234;27.494;2022-10-14T05:26:56;9.45;;;5.10;;
56810;SDS011;42691;47.234;27.494;2022-10-14T05:29:21;7.30;;;4.78;;
56810;SDS011;42691;47.234;27.494;2022-10-14T05:31:46;10.65;;;4.32;;
56810;SDS011;42691;47.234;27.494;2022-10-14T05:34:12;10.50;;;5.15;;
56810;SDS011;42691;47.234;27.494;2022-10-14T05:36:37;9.38;;;3.88;;
56810;SDS011;42691;47.234;27.494;2022-10-14T05:39:06;7.32;;;3.88;;
56810;SDS011;42691;47.234;27.494;2022-10-14T05:41:32;8.77;;;4.28;;
56810;SDS011;42691;47.234;27.494;2022-10-14T05:43:57;9.05;;;3.90;;
56810;SDS011;42691;47.234;27.494;2022-10-14T05:46:22;8.10;;;4.28;;
56810;SDS011;42691;47.234;27.494;2022-10-14T05:48:48;14.52;;;4.40;;
56810;SDS011;42691;47.234;27.494;2022-10-14T05:51:13;8.65;;;4.97;;
56810;SDS011;42691;47.234;27.494;2022-10-14T05:53:39;12.07;;;6.78;;
56810;SDS011;42691;47.234;27.494;2022-10-14T05:56:06;17.27;;;4.68;;
56810;SDS011;42691;47.234;27.494;2022-10-14T05:58:33;5.25;;;4.50;;
56810;SDS011;42691;47.234;27.494;2022-10-14T06:01:02;5.78;;;3.65;;
56810;SDS011;42691;47.234;27.494;2022-10-14T06:03:29;10.40;;;5.47;;
56810;SDS011;42691;47.234;27.494;2022-10-14T06:05:55;8.85;;;4.60;;
56810;SDS011;42691;47.234;27.494;2022-10-14T06:08:21;18.20;;;12.57;;
56810;SDS011;42691;47.234;27.494;2022-10-14T06:10:47;33.88;;;25.38;;
56810;SDS011;42691;47.234;27.494;2022-10-14T06:13:12;33.60;;;27.73;;
56810;SDS011;42691;47.234;27.494;2022-10-14T06:15:38;22.40;;;16.50;;
56810;SDS011;42691;47.234;27.494;2022-10-14T06:18:04;11.50;;;7.40;;
56810;SDS011;42691;47.234;27.494;2022-10-14T06:20:30;11.38;;;6.78;;
56810;SDS011;42691;47.234;27.494;2022-10-14T06:22:57;16.92;;;5.10;;
56810;SDS011;42691;47.234;27.494;2022-10-14T06:25:23;10.02;;;5.18;;
56810;SDS011;42691;47.234;27.494;2022-10-14T06:27:49;19.83;;;5.00;;
56810;SDS011;42691;47.234;27.494;2022-10-14T06:30:14;13.88;;;5.75;;
56810;SDS011;42691;47.234;27.494;2022-10-14T06:32:40;6.90;;;4.68;;
56810;SDS011;42691;47.234;27.494;2022-10-14T06:35:05;10.73;;;4.85;;
56810;SDS011;42691;47.234;27.494;2022-10-14T06:37:31;21.40;;;6.10;;
56810;SDS011;42691;47.234;27.494;2022-10-14T06:39:57;13.15;;;4.55;;
56810;SDS011;42691;47.234;27.494;2022-10-14T06:42:22;13.27;;;6.40;;
56810;SDS011;42691;47.234;27.494;2022-10-14T06:44:47;7.80;;;4.60;;
56810;SDS011;42691;47.234;27.494;2022-10-14T06:47:13;23.63;;;17.17;;
56810;SDS011;42691;47.234;27.494;2022-10-14T06:49:38;26.88;;;17.00;;
56810;SDS011;42691;47.234;27.494;2022-10-14T06:52:04;14.27;;;7.43;;
56810;SDS011;42691;47.234;27.494;2022-10-14T06:54:30;7.60;;;5.35;;
56810;SDS011;42691;47.234;27.494;2022-10-14T06:56:55;12.82;;;5.15;;
56810;SDS011;42691;47.234;27.494;2022-10-14T06:59:21;9.48;;;6.30;;
56810;SDS011;42691;47.234;27.494;2022-10-14T07:01:46;11.30;;;6.88;;
56810;SDS011;42691;47.234;27.494;2022-10-14T07:04:11;10.52;;;6.25;;
56810;SDS011;42691;47.234;27.494;2022-10-14T07:06:37;8.23;;;4.68;;
56810;SDS011;42691;47.234;27.494;2022-10-14T07:09:03;7.57;;;3.95;;
56810;SDS011;42691;47.234;27.494;2022-10-14T07:11:29;9.13;;;4.18;;
56810;SDS011;42691;47.234;27.494;2022-10-14T07:13:54;11.95;;;5.43;;
56810;SDS011;42691;47.234;27.494;2022-10-14T07:16:21;7.43;;;3.50;;
56810;SDS011;42691;47.234;27.494;2022-10-14T07:18:46;9.43;;;4.22;;
56810;SDS011;42691;47.234;27.494;2022-10-14T07:21:12;7.28;;;4.13;;
56810;SDS011;42691;47.234;27.494;2022-10-14T07:23:38;20.90;;;5.68;;
56810;SDS011;42691;47.234;27.494;2022-10-14T07:26:04;9.98;;;6.30;;
56810;SDS011;42691;47.234;27.494;2022-10-14T07:28:29;9.75;;;5.22;;
56810;SDS011;42691;47.234;27.494;2022-10-14T07:31:02;8.27;;;3.95;;
56810;SDS011;42691;47.234;27.494;2022-10-14T07:33:30;7.68;;;4.78;;
56810;SDS011;42691;47.234;27.494;2022-10-14T07:35:59;10.82;;;3.80;;
56810;SDS011;42691;47.234;27.494;2022-10-14T07:38:28;6.22;;;4.60;;
56810;SDS011;42691;47.234;27.494;2022-10-14T07:41:02;9.05;;;4.53;;
56810;SDS011;42691;47.234;27.494;2022-10-14T07:43:33;11.70;;;4.60;;
56810;SDS011;42691;47.234;27.494;2022-10-14T07:46:03;8.95;;;5.25;;
56810;SDS011;42691;47.234;27.494;2022-10-14T07:48:31;29.17;;;7.55;;
56810;SDS011;42691;47.234;27.494;2022-10-14T07:50:58;16.13;;;6.68;;
56810;SDS011;42691;47.234;27.494;2022-10-14T07:53:24;9.60;;;4.60;;
56810;SDS011;42691;47.234;27.494;2022-10-14T07:55:50;8.50;;;5.40;;
56810;SDS011;42691;47.234;27.494;2022-10-14T07:58:20;10.15;;;4.70;;
56810;SDS011;42691;47.234;27.494;2022-10-14T08:00:47;9.45;;;5.13;;
56810;SDS011;42691;47.234;27.494;2022-10-14T08:03:13;9.10;;;4.93;;
56810;SDS011;42691;47.234;27.494;2022-10-14T08:05:39;9.00;;;5.28;;
56810;SDS011;42691;47.234;27.494;2022-10-14T08:08:05;5.93;;;3.58;;
56810;SDS011;42691;47.234;27.494;2022-10-14T08:10:31;9.43;;;5.68;;
56810;SDS011;42691;47.234;27.494;2022-10-14T08:12:57;13.23;;;5.70;;
56810;SDS011;42691;47.234;27.494;2022-10-14T08:15:23;33.65;;;7.78;;
56810;SDS011;42691;47.234;27.494;2022-10-14T08:17:52;13.75;;;7.68;;
56810;SDS011;42691;47.234;27.494;2022-10-14T08:20:18;8.32;;;4.82;;
56810;SDS011;42691;47.234;27.494;2022-10-14T08:22:44;9.68;;;6.13;;
56810;SDS011;42691;47.234;27.494;2022-10-14T08:25:09;9.38;;;5.18;;
56810;SDS011;42691;47.234;27.494;2022-10-14T08:27:35;9.65;;;4.70;;
56810;SDS011;42691;47.234;27.494;2022-10-14T08:30:00;8.10;;;5.47;;
56810;SDS011;42691;47.234;27.494;2022-10-14T08:32:26;8.60;;;4.82;;
56810;SDS011;42691;47.234;27.494;2022-10-14T08:34:52;6.10;;;4.60;;
56810;SDS011;42691;47.234;27.494;2022-10-14T08:37:19;9.75;;;6.72;;
56810;SDS011;42691;47.234;27.494;2022-10-14T08:39:45;12.48;;;5.70;;
56810;SDS011;42691;47.234;27.494;2022-10-14T08:45:17;16.65;;;4.70;;
56810;SDS011;42691;47.234;27.494;2022-10-14T08:48:08;10.57;;;6.22;;
56810;SDS011;42691;47.234;27.494;2022-10-14T08:50:38;17.73;;;7.97;;
56810;SDS011;42691;47.234;27.494;2022-10-14T08:53:12;33.60;;;10.52;;
56810;SDS011;42691;47.234;27.494;2022-10-14T08:55:51;21.60;;;5.53;;
56810;SDS011;42691;47.234;27.494;2022-10-14T08:58:22;17.52;;;6.38;;
56810;SDS011;42691;47.234;27.494;2022-10-14T09:00:56;10.85;;;5.03;;
56810;SDS011;42691;47.234;27.494;2022-10-14T09:03:27;15.60;;;5.95;;
56810;SDS011;42691;47.234;27.494;2022-10-14T09:08:56;10.98;;;5.57;;
56810;SDS011;42691;47.234;27.494;2022-10-14T09:11:30;17.83;;;5.85;;
56810;SDS011;42691;47.234;27.494;2022-10-14T09:14:05;13.17;;;6.27;;
56810;SDS011;42691;47.234;27.494;2022-10-14T09:16:34;11.57;;;5.75;;
56810;SDS011;42691;47.234;27.494;2022-10-14T09:19:02;11.40;;;6.30;;
56810;SDS011;42691;47.234;27.494;2022-10-14T09:21:42;13.43;;;7.53;;
56810;SDS011;42691;47.234;27.494;2022-10-14T09:24:15;10.23;;;4.50;;
56810;SDS011;42691;47.234;27.494;2022-10-14T09:26:55;10.80;;;6.22;;
56810;SDS011;42691;47.234;27.494;2022-10-14T09:29:31;9.73;;;5.35;;
56810;SDS011;42691;47.234;27.494;2022-10-14T09:32:05;11.93;;;5.15;;
56810;SDS011;42691;47.234;27.494;2022-10-14T09:34:47;10.60;;;6.00;;
56810;SDS011;42691;47.234;27.494;2022-10-14T09:37:27;11.65;;;5.00;;
56810;SDS011;42691;47.234;27.494;2022-10-14T09:39:56;6.95;;;4.75;;
56810;SDS011;42691;47.234;27.494;2022-10-14T09:42:27;14.43;;;5.63;;
56810;SDS011;42691;47.234;27.494;2022-10-14T09:45:13;21.42;;;6.82;;
56810;SDS011;42691;47.234;27.494;2022-10-14T09:47:43;12.30;;;7.30;;
56810;SDS011;42691;47.234;27.494;2022-10-14T09:50:22;11.93;;;6.57;;
56810;SDS011;42691;47.234;27.494;2022-10-14T09:52:59;9.02;;;5.82;;
56810;SDS011;42691;47.234;27.494;2022-10-14T09:55:28;11.50;;;7.15;;
56810;SDS011;42691;47.234;27.494;2022-10-14T09:58:02;12.00;;;6.03;;
56810;SDS011;42691;47.234;27.494;2022-10-14T10:00:30;10.50;;;5.45;;
56810;SDS011;42691;47.234;27.494;2022-10-14T10:02:58;10.95;;;6.30;;
56810;SDS011;42691;47.234;27.494;2022-10-14T10:05:25;6.85;;;5.07;;
56810;SDS011;42691;47.234;27.494;2022-10-14T10:08:00;13.38;;;7.35;;
56810;SDS011;42691;47.234;27.494;2022-10-14T10:10:26;12.13;;;6.20;;
56810;SDS011;42691;47.234;27.494;2022-10-14T10:12:54;11.40;;;5.95;;
56810;SDS011;42691;47.234;27.494;2022-10-14T10:15:21;7.78;;;4.47;;
56810;SDS011;42691;47.234;27.494;2022-10-14T10:17:47;9.45;;;5.10;;
56810;SDS011;42691;47.234;27.494;2022-10-14T10:22:39;15.15;;;6.82;;
56810;SDS011;42691;47.234;27.494;2022-10-14T10:30:37;13.95;;;6.15;;
56810;SDS011;42691;47.234;27.494;2022-10-14T11:00:44;7.82;;;4.47;;
56810;SDS011;42691;47.234;27.494;2022-10-14T11:03:51;11.63;;;5.88;;
56810;SDS011;42691;47.234;27.494;2022-10-14T11:06:22;15.10;;;5.25;;
56810;SDS011;42691;47.234;27.494;2022-10-14T11:09:20;7.97;;;4.32;;
56810;SDS011;42691;47.234;27.494;2022-10-14T11:12:19;16.48;;;9.68;;
56810;SDS011;42691;47.234;27.494;2022-10-14T11:30:54;16.25;;;7.47;;
56810;SDS011;42691;47.234;27.494;2022-10-14T11:36:18;13.85;;;6.68;;
56810;SDS011;42691;47.234;27.494;2022-10-14T11:41:32;13.60;;;5.40;;
56810;SDS011;42691;47.234;27.494;2022-10-14T11:46:54;18.05;;;6.15;;
56810;SDS011;42691;47.234;27.494;2022-10-14T11:57:03;13.57;;;6.28;;
56810;SDS011;42691;47.234;27.494;2022-10-14T12:07:59;14.32;;;5.65;;
56810;SDS011;42691;47.234;27.494;2022-10-14T12:10:35;11.05;;;6.38;;
56810;SDS011;42691;47.234;27.494;2022-10-14T12:13:12;13.80;;;4.93;;
56810;SDS011;42691;47.234;27.494;2022-10-14T12:15:46;11.77;;;6.20;;
56810;SDS011;42691;47.234;27.494;2022-10-14T12:18:14;9.65;;;4.70;;
56810;SDS011;42691;47.234;27.494;2022-10-14T12:28:29;10.32;;;5.13;;
56810;SDS011;42691;47.234;27.494;2022-10-14T12:36:34;8.23;;;4.03;;
56810;SDS011;42691;47.234;27.494;2022-10-14T12:39:21;11.30;;;5.35;;
56810;SDS011;42691;47.234;27.494;2022-10-14T12:47:34;8.38;;;3.40;;
56810;SDS011;42691;47.234;27.494;2022-10-14T12:50:00;9.75;;;5.40;;
56810;SDS011;42691;47.234;27.494;2022-10-14T12:52:54;5.95;;;4.32;;
56810;SDS011;42691;47.234;27.494;2022-10-14T12:55:23;10.98;;;3.88;;
56810;SDS011;42691;47.234;27.494;2022-10-14T12:57:52;9.27;;;5.88;;
56810;SDS011;42691;47.234;27.494;2022-10-14T13:02:48;9.15;;;5.68;;
56810;SDS011;42691;47.234;27.494;2022-10-14T13:05:32;9.68;;;4.95;;
56810;SDS011;42691;47.234;27.494;2022-10-14T13:16:02;9.32;;;4.22;;
56810;SDS011;42691;47.234;27.494;2022-10-14T13:23:49;7.97;;;5.28;;
56810;SDS011;42691;47.234;27.494;2022-10-14T13:31:28;10.07;;;5.68;;
56810;SDS011;42691;47.234;27.494;2022-10-14T13:40:27;11.30;;;8.83;;
56810;SDS011;42691;47.234;27.494;2022-10-14T13:43:04;13.02;;;6.82;;
56810;SDS011;42691;47.234;27.494;2022-10-14T13:48:13;9.50;;;4.65;;
56810;SDS011;42691;47.234;27.494;2022-10-14T13:50:42;14.40;;;7.65;;
56810;SDS011;42691;47.234;27.494;2022-10-14T13:53:16;18.23;;;7.28;;
56810;SDS011;42691;47.234;27.494;2022-10-14T13:55:47;11.52;;;5.55;;
56810;SDS011;42691;47.234;27.494;2022-10-14T13:58:19;13.83;;;6.80;;
56810;SDS011;42691;47.234;27.494;2022-10-14T14:03:20;17.55;;;8.02;;
56810;SDS011;42691;47.234;27.494;2022-10-14T14:05:49;15.68;;;9.27;;
56810;SDS011;42691;47.234;27.494;2022-10-14T14:08:16;10.40;;;6.60;;
56810;SDS011;42691;47.234;27.494;2022-10-14T14:10:53;12.57;;;6.38;;
56810;SDS011;42691;47.234;27.494;2022-10-14T14:13:21;9.75;;;6.38;;
56810;SDS011;42691;47.234;27.494;2022-10-14T14:15:49;12.77;;;6.20;;
56810;SDS011;42691;47.234;27.494;2022-10-14T14:18:24;12.55;;;7.53;;
56810;SDS011;42691;47.234;27.494;2022-10-14T14:20:57;10.93;;;4.82;;
56810;SDS011;42691;47.234;27.494;2022-10-14T14:23:24;11.05;;;5.18;;
56810;SDS011;42691;47.234;27.494;2022-10-14T14:25:50;20.58;;;10.27;;
56810;SDS011;42691;47.234;27.494;2022-10-14T14:28:17;14.80;;;7.32;;
56810;SDS011;42691;47.234;27.494;2022-10-14T14:30:52;25.00;;;8.95;;
56810;SDS011;42691;47.234;27.494;2022-10-14T14:33:31;6.40;;;5.38;;
56810;SDS011;42691;47.234;27.494;2022-10-14T14:36:00;9.65;;;4.45;;
56810;SDS011;42691;47.234;27.494;2022-10-14T14:38:29;7.55;;;3.65;;
56810;SDS011;42691;47.234;27.494;2022-10-14T14:43:42;8.23;;;5.72;;
56810;SDS011;42691;47.234;27.494;2022-10-14T14:46:10;8.18;;;3.90;;
56810;SDS011;42691;47.234;27.494;2022-10-14T14:48:52;9.27;;;4.55;;
56810;SDS011;42691;47.234;27.494;2022-10-14T14:51:19;14.52;;;5.93;;
56810;SDS011;42691;47.234;27.494;2022-10-14T14:53:46;12.18;;;4.43;;
56810;SDS011;42691;47.234;27.494;2022-10-14T14:56:23;6.53;;;3.90;;
56810;SDS011;42691;47.234;27.494;2022-10-14T14:58:56;11.77;;;5.07;;
56810;SDS011;42691;47.234;27.494;2022-10-14T15:01:34;10.35;;;6.03;;
56810;SDS011;42691;47.234;27.494;2022-10-14T15:04:03;13.43;;;5.70;;
56810;SDS011;42691;47.234;27.494;2022-10-14T15:06:33;12.98;;;6.35;;
56810;SDS011;42691;47.234;27.494;2022-10-14T15:09:02;13.45;;;5.60;;
56810;SDS011;42691;47.234;27.494;2022-10-14T15:11:44;9.40;;;5.57;;
56810;SDS011;42691;47.234;27.494;2022-10-14T15:17:37;12.30;;;7.63;;
56810;SDS011;42691;47.234;27.494;2022-10-14T15:22:35;11.40;;;7.47;;
56810;SDS011;42691;47.234;27.494;2022-10-14T15:25:11;14.45;;;7.65;;
56810;SDS011;42691;47.234;27.494;2022-10-14T15:27:48;14.80;;;9.55;;
56810;SDS011;42691;47.234;27.494;2022-10-14T15:32:59;41.35;;;10.52;;
56810;SDS011;42691;47.234;27.494;2022-10-14T15:35:27;36.05;;;11.75;;
56810;SDS011;42691;47.234;27.494;2022-10-14T15:37:53;26.38;;;9.90;;
56810;SDS011;42691;47.234;27.494;2022-10-14T15:40:27;16.75;;;9.93;;
56810;SDS011;42691;47.234;27.494;2022-10-14T15:42:54;27.85;;;11.27;;
56810;SDS011;42691;47.234;27.494;2022-10-14T15:45:20;16.58;;;8.65;;
56810;SDS011;42691;47.234;27.494;2022-10-14T15:47:51;12.82;;;9.10;;
56810;SDS011;42691;47.234;27.494;2022-10-14T15:50:19;15.10;;;9.45;;
56810;SDS011;42691;47.234;27.494;2022-10-14T15:52:47;16.02;;;8.25;;
56810;SDS011;42691;47.234;27.494;2022-10-14T15:55:22;60.67;;;13.43;;
56810;SDS011;42691;47.234;27.494;2022-10-14T15:57:49;13.10;;;8.52;;
56810;SDS011;42691;47.234;27.494;2022-10-14T16:00:16;13.55;;;7.03;;
56810;SDS011;42691;47.234;27.494;2022-10-14T16:02:47;12.55;;;7.13;;
56810;SDS011;42691;47.234;27.494;2022-10-14T16:05:15;13.10;;;6.95;;
56810;SDS011;42691;47.234;27.494;2022-10-14T16:07:40;10.32;;;6.75;;
56810;SDS011;42691;47.234;27.494;2022-10-14T16:10:07;10.80;;;5.38;;
56810;SDS011;42691;47.234;27.494;2022-10-14T16:12:35;10.40;;;6.75;;
56810;SDS011;42691;47.234;27.494;2022-10-14T16:15:00;16.65;;;7.43;;
56810;SDS011;42691;47.234;27.494;2022-10-14T16:17:26;14.40;;;8.30;;
56810;SDS011;42691;47.234;27.494;2022-10-14T16:19:52;11.38;;;6.65;;
56810;SDS011;42691;47.234;27.494;2022-10-14T16:22:17;13.68;;;6.45;;
56810;SDS011;42691;47.234;27.494;2022-10-14T16:24:43;9.23;;;5.95;;
56810;SDS011;42691;47.234;27.494;2022-10-14T16:27:08;12.27;;;6.40;;
56810;SDS011;42691;47.234;27.494;2022-10-14T16:29:34;12.73;;;6.32;;
56810;SDS011;42691;47.234;27.494;2022-10-14T16:32:00;12.52;;;5.38;;
56810;SDS011;42691;47.234;27.494;2022-10-14T16:34:25;9.52;;;6.78;;
56810;SDS011;42691;47.234;27.494;2022-10-14T16:36:51;12.90;;;6.25;;
56810;SDS011;42691;47.234;27.494;2022-10-14T16:39:17;10.07;;;5.60;;
56810;SDS011;42691;47.234;27.494;2022-10-14T16:41:44;9.95;;;6.10;;
56810;SDS011;42691;47.234;27.494;2022-10-14T16:44:10;10.98;;;6.03;;
56810;SDS011;42691;47.234;27.494;2022-10-14T16:46:54;12.90;;;5.53;;
56810;SDS011;42691;47.234;27.494;2022-10-14T16:49:41;10.00;;;6.32;;
56810;SDS011;42691;47.234;27.494;2022-10-14T16:52:08;19.88;;;7.65;;
56810;SDS011;42691;47.234;27.494;2022-10-14T16:54:33;12.07;;;7.22;;
56810;SDS011;42691;47.234;27.494;2022-10-14T16:56:59;14.10;;;7.45;;
56810;SDS011;42691;47.234;27.494;2022-10-14T16:59:24;13.73;;;9.32;;
56810;SDS011;42691;47.234;27.494;2022-10-14T17:01:52;19.88;;;6.97;;
56810;SDS011;42691;47.234;27.494;2022-10-14T17:04:18;15.60;;;7.00;;
56810;SDS011;42691;47.234;27.494;2022-10-14T17:06:44;15.13;;;7.45;;
56810;SDS011;42691;47.234;27.494;2022-10-14T17:09:11;14.35;;;6.70;;
56810;SDS011;42691;47.234;27.494;2022-10-14T17:11:37;11.13;;;6.70;;
56810;SDS011;42691;47.234;27.494;2022-10-14T17:14:03;17.30;;;7.85;;
56810;SDS011;42691;47.234;27.494;2022-10-14T17:16:29;14.30;;;6.43;;
56810;SDS011;42691;47.234;27.494;2022-10-14T17:18:55;13.85;;;6.53;;
56810;SDS011;42691;47.234;27.494;2022-10-14T17:21:22;15.13;;;8.68;;
56810;SDS011;42691;47.234;27.494;2022-10-14T17:23:52;21.45;;;11.27;;
56810;SDS011;42691;47.234;27.494;2022-10-14T17:26:17;14.45;;;6.65;;
56810;SDS011;42691;47.234;27.494;2022-10-14T17:28:43;13.77;;;7.03;;